createdAt,value
2019-03-03T00:00:04.964Z,7.40
2019-03-03T00:01:05.106Z,7.40
2019-03-03T00:02:05.272Z,7.40
2019-03-03T00:03:08.041Z,7.40
2019-03-03T00:04:05.084Z,7.40
2019-03-03T00:05:05.191Z,7.40
2019-03-03T00:06:07.967Z,7.40
2019-03-03T00:07:05.166Z,7.40
2019-03-03T00:08:08.213Z,7.40
2019-03-03T00:09:07.688Z,7.40
2019-03-03T00:10:07.192Z,7.40
2019-03-03T00:11:05.211Z,7.40
2019-03-03T00:12:10.340Z,7.40
2019-03-03T00:13:05.283Z,7.40
2019-03-03T00:14:05.377Z,7.40
2019-03-03T00:15:05.520Z,7.40
2019-03-03T00:16:04.655Z,7.40
2019-03-03T00:17:07.349Z,7.40
2019-03-03T00:18:07.984Z,7.50
2019-03-03T00:19:05.011Z,7.50
2019-03-03T00:20:07.705Z,7.40
2019-03-03T00:21:04.791Z,7.50
2019-03-03T00:22:07.684Z,7.50
2019-03-03T00:23:04.716Z,7.50
2019-03-03T00:24:09.912Z,7.50
2019-03-03T00:25:05.114Z,7.50
2019-03-03T00:26:05.315Z,7.50
2019-03-03T00:27:05.461Z,7.50
2019-03-03T00:28:08.256Z,7.60
2019-03-03T00:29:05.362Z,7.50
2019-03-03T00:30:05.648Z,7.60
2019-03-03T00:31:04.761Z,7.50
2019-03-03T00:32:07.593Z,7.60
2019-03-03T00:33:08.299Z,7.60
2019-03-03T00:34:07.928Z,7.60
2019-03-03T00:35:07.463Z,7.60
2019-03-03T00:36:10.735Z,7.60
2019-03-03T00:37:04.848Z,7.60
2019-03-03T00:38:10.206Z,7.60
2019-03-03T00:39:10.286Z,7.60
2019-03-03T00:40:05.426Z,7.60
2019-03-03T00:41:05.619Z,7.70
2019-03-03T00:42:04.763Z,7.60
2019-03-03T00:43:04.919Z,7.70
2019-03-03T00:44:07.543Z,7.70
2019-03-03T00:45:05.557Z,7.60
2019-03-03T00:46:04.733Z,7.70
2019-03-03T00:47:04.884Z,7.70
2019-03-03T00:48:05.100Z,7.70
2019-03-03T00:49:10.313Z,7.70
2019-03-03T00:50:13.136Z,7.70
2019-03-03T00:51:07.677Z,7.60
2019-03-03T00:52:07.309Z,7.70
2019-03-03T00:53:05.342Z,7.60
2019-03-03T00:54:08.086Z,7.70
2019-03-03T00:55:04.993Z,7.60
2019-03-03T00:56:05.148Z,7.70
2019-03-03T00:57:05.413Z,7.70
2019-03-03T00:58:05.645Z,7.70
2019-03-03T00:59:04.870Z,7.70
2019-03-03T01:00:07.588Z,7.70
2019-03-03T01:01:08.151Z,7.70
2019-03-03T01:02:06.529Z,7.70
2019-03-03T01:03:08.170Z,7.70
2019-03-03T01:04:05.160Z,7.70
2019-03-03T01:05:05.264Z,7.70
2019-03-03T01:06:08.023Z,7.70
2019-03-03T01:07:07.640Z,7.70
2019-03-03T01:08:13.261Z,7.70
2019-03-03T01:09:05.215Z,7.70
2019-03-03T01:10:08.215Z,7.70
2019-03-03T01:11:05.228Z,7.70
2019-03-03T01:12:10.533Z,7.80
2019-03-03T01:13:13.256Z,7.70
2019-03-03T01:14:05.387Z,7.70
2019-03-03T01:15:08.138Z,7.80
2019-03-03T01:16:10.333Z,7.80
2019-03-03T01:17:05.345Z,7.80
2019-03-03T01:18:10.590Z,7.80
2019-03-03T01:19:08.237Z,7.80
2019-03-03T01:20:05.190Z,7.80
2019-03-03T01:21:07.913Z,7.80
2019-03-03T01:22:07.634Z,7.80
2019-03-03T01:23:10.302Z,7.70
2019-03-03T01:24:07.806Z,7.80
2019-03-03T01:25:07.390Z,7.80
2019-03-03T01:26:11.755Z,7.80
2019-03-03T01:27:04.729Z,7.80
2019-03-03T01:28:04.825Z,7.80
2019-03-03T01:29:06.217Z,7.80
2019-03-03T01:30:05.411Z,7.80
2019-03-03T01:31:08.226Z,7.80
2019-03-03T01:32:05.250Z,7.80
2019-03-03T01:33:05.416Z,7.80
2019-03-03T01:34:05.634Z,7.80
2019-03-03T01:35:04.710Z,7.80
2019-03-03T01:36:04.798Z,7.80
2019-03-03T01:37:07.527Z,7.80
2019-03-03T01:38:08.002Z,7.80
2019-03-03T01:39:04.972Z,7.80
2019-03-03T01:40:07.564Z,7.80
2019-03-03T01:41:06.328Z,7.80
2019-03-03T01:42:05.547Z,7.80
2019-03-03T01:43:04.672Z,7.80
2019-03-03T01:44:07.395Z,7.80
2019-03-03T01:45:07.961Z,7.80
2019-03-03T01:46:05.025Z,7.80
2019-03-03T01:47:07.739Z,7.70
2019-03-03T01:48:04.779Z,7.70
2019-03-03T01:49:04.857Z,7.80
2019-03-03T01:50:07.550Z,7.80
2019-03-03T01:51:05.743Z,7.70
2019-03-03T01:52:07.539Z,7.70
2019-03-03T01:53:05.540Z,7.70
2019-03-03T01:54:04.740Z,7.70
2019-03-03T01:55:04.945Z,7.70
2019-03-03T01:56:05.153Z,7.70
2019-03-03T01:57:05.321Z,7.70
2019-03-03T01:58:08.077Z,7.70
2019-03-03T01:59:05.233Z,7.70
2019-03-03T02:00:05.540Z,7.70
2019-03-03T02:01:04.704Z,7.70
2019-03-03T02:02:04.831Z,7.70
2019-03-03T02:03:07.484Z,7.70
2019-03-03T02:04:08.009Z,7.70
2019-03-03T02:05:04.958Z,7.80
2019-03-03T02:06:04.986Z,7.70
2019-03-03T02:07:07.627Z,7.70
2019-03-03T02:08:08.185Z,7.70
2019-03-03T02:09:05.349Z,7.70
2019-03-03T02:10:13.146Z,7.70
2019-03-03T02:11:07.748Z,7.70
2019-03-03T02:12:07.383Z,7.70
2019-03-03T02:13:05.416Z,7.70
2019-03-03T02:14:08.090Z,7.70
2019-03-03T02:15:05.026Z,7.70
2019-03-03T02:16:07.780Z,7.70
2019-03-03T02:17:04.895Z,7.70
2019-03-03T02:18:05.046Z,7.70
2019-03-03T02:19:05.181Z,7.80
2019-03-03T02:20:05.358Z,7.70
2019-03-03T02:21:08.045Z,7.70
2019-03-03T02:22:07.585Z,7.80
2019-03-03T02:23:05.640Z,7.80
2019-03-03T02:24:04.741Z,7.80
2019-03-03T02:25:05.480Z,7.80
2019-03-03T02:26:08.249Z,7.80
2019-03-03T02:27:10.362Z,7.80
2019-03-03T02:28:05.341Z,7.80
2019-03-03T02:29:05.517Z,7.80
2019-03-03T02:30:05.642Z,7.80
2019-03-03T02:31:07.357Z,7.80
2019-03-03T02:32:05.428Z,7.80
2019-03-03T02:33:08.295Z,7.80
2019-03-03T02:34:05.258Z,7.80
2019-03-03T02:35:07.930Z,7.80
2019-03-03T02:36:05.074Z,7.80
2019-03-03T02:37:05.184Z,7.80
2019-03-03T02:38:05.291Z,7.90
2019-03-03T02:39:04.698Z,7.80
2019-03-03T02:40:07.415Z,7.80
2019-03-03T02:41:05.473Z,7.90
2019-03-03T02:42:07.248Z,7.80
2019-03-03T02:43:05.306Z,7.80
2019-03-03T02:44:05.493Z,7.80
2019-03-03T02:45:08.277Z,7.80
2019-03-03T02:46:07.930Z,7.80
2019-03-03T02:47:07.592Z,7.80
2019-03-03T02:48:08.165Z,7.80
2019-03-03T02:49:07.774Z,7.80
2019-03-03T02:50:04.961Z,7.80
2019-03-03T02:51:05.155Z,7.80
2019-03-03T02:52:05.490Z,7.80
2019-03-03T02:53:04.721Z,7.80
2019-03-03T02:54:07.532Z,7.80
2019-03-03T02:55:05.552Z,7.80
2019-03-03T02:56:05.719Z,7.80
2019-03-03T02:57:04.815Z,7.80
2019-03-03T02:58:07.447Z,7.80
2019-03-03T02:59:07.971Z,7.80
2019-03-03T03:00:07.455Z,7.80
2019-03-03T03:01:05.573Z,7.80
2019-03-03T03:02:04.911Z,7.90
2019-03-03T03:03:05.079Z,7.80
2019-03-03T03:04:05.250Z,7.80
2019-03-03T03:05:05.400Z,7.80
2019-03-03T03:06:05.589Z,7.80
2019-03-03T03:07:04.798Z,7.80
2019-03-03T03:08:04.929Z,7.80
2019-03-03T03:09:05.121Z,7.80
2019-03-03T03:10:07.836Z,7.80
2019-03-03T03:11:04.838Z,7.80
2019-03-03T03:12:07.501Z,7.80
2019-03-03T03:13:05.484Z,7.80
2019-03-03T03:14:10.797Z,7.80
2019-03-03T03:15:04.854Z,7.80
2019-03-03T03:16:05.093Z,7.80
2019-03-03T03:17:07.940Z,7.90
2019-03-03T03:18:05.095Z,7.90
2019-03-03T03:19:05.471Z,7.80
2019-03-03T03:20:04.651Z,7.80
2019-03-03T03:21:04.853Z,7.80
2019-03-03T03:22:05.445Z,7.90
2019-03-03T03:23:08.142Z,7.80
2019-03-03T03:24:05.154Z,7.80
2019-03-03T03:25:07.911Z,7.80
2019-03-03T03:26:04.987Z,7.80
2019-03-03T03:27:07.265Z,7.90
2019-03-03T03:28:08.135Z,7.80
2019-03-03T03:29:05.183Z,7.80
2019-03-03T03:30:07.995Z,7.80
2019-03-03T03:31:05.107Z,7.90
2019-03-03T03:32:05.406Z,7.90
2019-03-03T03:33:08.182Z,7.80
2019-03-03T03:34:05.213Z,7.80
2019-03-03T03:35:05.422Z,7.90
2019-03-03T03:36:08.137Z,7.90
2019-03-03T03:37:05.135Z,7.90
2019-03-03T03:38:08.001Z,7.90
2019-03-03T03:39:05.074Z,7.90
2019-03-03T03:40:05.197Z,7.80
2019-03-03T03:41:07.883Z,7.90
2019-03-03T03:42:04.884Z,7.90
2019-03-03T03:43:10.197Z,7.90
2019-03-03T03:44:10.314Z,7.90
2019-03-03T03:45:05.413Z,7.90
2019-03-03T03:46:05.430Z,7.90
2019-03-03T03:47:05.093Z,7.90
2019-03-03T03:48:05.333Z,7.90
2019-03-03T03:49:07.969Z,7.90
2019-03-03T03:50:07.641Z,7.90
2019-03-03T03:51:05.718Z,7.90
2019-03-03T03:52:07.425Z,7.90
2019-03-03T03:53:07.861Z,7.90
2019-03-03T03:54:10.069Z,7.90
2019-03-03T03:55:05.041Z,7.90
2019-03-03T03:56:10.402Z,7.90
2019-03-03T03:57:05.500Z,7.90
2019-03-03T03:58:05.161Z,7.90
2019-03-03T03:59:07.922Z,8.00
2019-03-03T04:00:04.916Z,7.90
2019-03-03T04:01:05.399Z,7.90
2019-03-03T04:02:08.242Z,7.90
2019-03-03T04:03:05.240Z,7.90
2019-03-03T04:04:09.968Z,8.00
2019-03-03T04:05:07.497Z,8.00
2019-03-03T04:06:05.501Z,7.90
2019-03-03T04:07:05.002Z,8.00
2019-03-03T04:08:05.210Z,8.00
2019-03-03T04:09:08.045Z,7.90
2019-03-03T04:10:05.009Z,8.00
2019-03-03T04:11:05.160Z,8.00
2019-03-03T04:12:07.885Z,7.90
2019-03-03T04:13:05.022Z,8.00
2019-03-03T04:14:05.247Z,8.00
2019-03-03T04:15:10.523Z,8.00
2019-03-03T04:16:05.685Z,8.00
2019-03-03T04:17:04.853Z,8.00
2019-03-03T04:18:04.922Z,7.90
2019-03-03T04:19:05.096Z,8.00
2019-03-03T04:20:05.179Z,8.00
2019-03-03T04:21:07.917Z,8.00
2019-03-03T04:22:04.979Z,8.00
2019-03-03T04:23:05.157Z,7.90
2019-03-03T04:24:05.298Z,7.90
2019-03-03T04:25:05.573Z,8.00
2019-03-03T04:26:04.762Z,7.90
2019-03-03T04:27:04.955Z,7.90
2019-03-03T04:28:07.810Z,7.90
2019-03-03T04:29:04.849Z,7.90
2019-03-03T04:30:05.329Z,7.90
2019-03-03T04:31:15.699Z,7.90
2019-03-03T04:32:04.834Z,7.90
2019-03-03T04:33:04.972Z,7.90
2019-03-03T04:34:05.066Z,7.90
2019-03-03T04:35:05.465Z,7.90
2019-03-03T04:36:08.158Z,7.90
2019-03-03T04:37:07.673Z,7.90
2019-03-03T04:38:05.600Z,7.90
2019-03-03T04:39:07.258Z,7.90
2019-03-03T04:40:07.751Z,7.90
2019-03-03T04:41:04.705Z,7.90
2019-03-03T04:42:04.816Z,7.90
2019-03-03T04:43:05.018Z,7.90
2019-03-03T04:44:07.708Z,7.90
2019-03-03T04:45:04.773Z,7.90
2019-03-03T04:46:04.965Z,7.90
2019-03-03T04:47:05.127Z,7.90
2019-03-03T04:48:05.356Z,7.90
2019-03-03T04:49:05.727Z,7.90
2019-03-03T04:50:05.068Z,7.90
2019-03-03T04:51:07.814Z,7.90
2019-03-03T04:52:04.821Z,7.90
2019-03-03T04:53:07.508Z,7.90
2019-03-03T04:54:05.558Z,7.90
2019-03-03T04:55:04.843Z,7.90
2019-03-03T04:56:05.225Z,7.80
2019-03-03T04:57:05.526Z,7.90
2019-03-03T04:58:04.687Z,7.80
2019-03-03T04:59:07.350Z,7.80
2019-03-03T05:00:07.892Z,7.80
2019-03-03T05:01:07.492Z,7.80
2019-03-03T05:02:05.474Z,7.80
2019-03-03T05:03:05.639Z,7.90
2019-03-03T05:04:04.833Z,7.80
2019-03-03T05:05:07.483Z,7.80
2019-03-03T05:06:08.054Z,7.80
2019-03-03T05:07:05.092Z,7.80
2019-03-03T05:08:05.270Z,7.80
2019-03-03T05:09:07.952Z,7.80
2019-03-03T05:10:07.608Z,7.80
2019-03-03T05:11:08.069Z,7.80
2019-03-03T05:12:07.714Z,7.80
2019-03-03T05:13:04.666Z,7.80
2019-03-03T05:14:04.778Z,7.80
2019-03-03T05:15:04.908Z,7.80
2019-03-03T05:16:05.165Z,7.80
2019-03-03T05:17:08.732Z,7.80
2019-03-03T05:18:04.897Z,7.80
2019-03-03T05:19:04.972Z,7.80
2019-03-03T05:20:05.153Z,7.80
2019-03-03T05:21:05.305Z,7.80
2019-03-03T05:22:05.453Z,7.80
2019-03-03T05:23:10.675Z,7.70
2019-03-03T05:24:07.207Z,7.70
2019-03-03T05:25:08.017Z,7.70
2019-03-03T05:26:05.203Z,7.70
2019-03-03T05:27:05.538Z,7.70
2019-03-03T05:28:04.729Z,7.70
2019-03-03T05:29:04.805Z,7.70
2019-03-03T05:30:07.873Z,7.60
2019-03-03T05:31:07.387Z,7.70
2019-03-03T05:32:08.014Z,7.70
2019-03-03T05:33:05.047Z,7.70
2019-03-03T05:34:05.226Z,7.60
2019-03-03T05:35:05.398Z,7.60
2019-03-03T05:36:05.522Z,7.60
2019-03-03T05:37:08.282Z,7.60
2019-03-03T05:38:05.337Z,7.60
2019-03-03T05:39:05.465Z,7.60
2019-03-03T05:40:05.616Z,7.60
2019-03-03T05:41:04.677Z,7.60
2019-03-03T05:42:04.959Z,7.60
2019-03-03T05:43:05.611Z,7.60
2019-03-03T05:44:04.707Z,7.50
2019-03-03T05:45:04.966Z,7.60
2019-03-03T05:46:05.089Z,7.60
2019-03-03T05:47:15.902Z,7.60
2019-03-03T05:48:05.331Z,7.60
2019-03-03T05:49:05.503Z,7.60
2019-03-03T05:50:04.794Z,7.60
2019-03-03T05:51:05.014Z,7.60
2019-03-03T05:52:05.222Z,7.70
2019-03-03T05:53:05.619Z,7.70
2019-03-03T05:54:09.834Z,7.70
2019-03-03T05:55:05.039Z,7.70
2019-03-03T05:56:07.877Z,7.70
2019-03-03T05:57:07.626Z,7.70
2019-03-03T05:58:08.225Z,7.70
2019-03-03T05:59:05.171Z,1.30
2019-03-03T06:00:05.342Z,7.70
2019-03-03T06:01:05.538Z,7.70
2019-03-03T06:02:09.745Z,7.70
2019-03-03T06:03:04.776Z,7.70
2019-03-03T06:04:05.000Z,7.70
2019-03-03T06:05:10.247Z,7.80
2019-03-03T06:06:05.229Z,7.70
2019-03-03T06:07:05.267Z,7.80
2019-03-03T06:08:08.007Z,7.80
2019-03-03T06:09:05.350Z,7.80
2019-03-03T06:10:05.532Z,7.80
2019-03-03T06:11:04.678Z,7.80
2019-03-03T06:12:04.944Z,7.80
2019-03-03T06:13:05.196Z,7.80
2019-03-03T06:14:05.322Z,7.80
2019-03-03T06:15:08.033Z,7.80
2019-03-03T06:16:07.689Z,7.90
2019-03-03T06:17:07.296Z,7.90
2019-03-03T06:18:07.869Z,7.80
2019-03-03T06:19:04.850Z,7.90
2019-03-03T06:20:05.014Z,7.90
2019-03-03T06:21:07.792Z,7.90
2019-03-03T06:22:04.774Z,7.90
2019-03-03T06:23:07.466Z,7.90
2019-03-03T06:24:05.626Z,7.90
2019-03-03T06:25:04.820Z,7.90
2019-03-03T06:26:05.067Z,7.90
2019-03-03T06:27:07.751Z,8.00
2019-03-03T06:28:04.788Z,7.90
2019-03-03T06:29:04.916Z,8.00
2019-03-03T06:30:05.539Z,8.00
2019-03-03T06:31:04.779Z,8.00
2019-03-03T06:32:07.475Z,8.00
2019-03-03T06:33:05.402Z,8.00
2019-03-03T06:34:08.091Z,8.00
2019-03-03T06:35:07.593Z,8.00
2019-03-03T06:36:08.191Z,8.00
2019-03-03T06:37:05.248Z,8.00
2019-03-03T06:38:05.388Z,8.00
2019-03-03T06:39:08.197Z,8.00
2019-03-03T06:40:05.411Z,8.00
2019-03-03T06:41:08.175Z,8.00
2019-03-03T06:42:07.888Z,8.00
2019-03-03T06:43:09.927Z,8.10
2019-03-03T06:44:05.049Z,8.00
2019-03-03T06:45:04.736Z,8.10
2019-03-03T06:46:07.395Z,8.10
2019-03-03T06:47:07.967Z,8.10
2019-03-03T06:48:05.026Z,8.10
2019-03-03T06:49:05.166Z,8.10
2019-03-03T06:50:05.321Z,8.10
2019-03-03T06:51:05.426Z,8.10
2019-03-03T06:52:05.564Z,8.10
2019-03-03T06:53:04.818Z,8.10
2019-03-03T06:54:07.680Z,8.10
2019-03-03T06:55:04.674Z,8.10
2019-03-03T06:56:07.481Z,8.10
2019-03-03T06:57:08.391Z,8.10
2019-03-03T06:58:05.461Z,8.10
2019-03-03T06:59:08.604Z,8.10
2019-03-03T07:00:10.133Z,8.10
2019-03-03T07:01:05.412Z,8.10
2019-03-03T07:02:05.544Z,8.20
2019-03-03T07:03:07.233Z,8.10
2019-03-03T07:04:07.805Z,8.10
2019-03-03T07:05:07.392Z,8.10
2019-03-03T07:06:05.318Z,8.10
2019-03-03T07:07:05.561Z,8.10
2019-03-03T07:08:07.270Z,8.10
2019-03-03T07:09:06.394Z,8.10
2019-03-03T07:10:05.606Z,8.10
2019-03-03T07:11:05.364Z,8.20
2019-03-03T07:12:05.916Z,8.10
2019-03-03T07:13:05.246Z,8.10
2019-03-03T07:14:05.434Z,8.20
2019-03-03T07:15:08.306Z,8.20
2019-03-03T07:16:05.467Z,8.20
2019-03-03T07:17:07.204Z,8.20
2019-03-03T07:18:05.160Z,8.20
2019-03-03T07:19:07.958Z,8.20
2019-03-03T07:20:07.596Z,8.20
2019-03-03T07:21:05.670Z,8.20
2019-03-03T07:22:06.077Z,8.20
2019-03-03T07:23:08.087Z,8.30
2019-03-03T07:24:07.759Z,8.30
2019-03-03T07:25:04.761Z,8.30
2019-03-03T07:26:07.435Z,8.30
2019-03-03T07:27:05.509Z,8.30
2019-03-03T07:28:08.258Z,8.30
2019-03-03T07:29:05.553Z,8.30
2019-03-03T07:30:07.324Z,8.30
2019-03-03T07:31:10.360Z,8.30
2019-03-03T07:32:10.371Z,8.30
2019-03-03T07:33:07.887Z,8.40
2019-03-03T07:34:07.477Z,8.40
2019-03-03T07:35:05.671Z,8.30
2019-03-03T07:36:07.547Z,8.40
2019-03-03T07:37:05.937Z,8.30
2019-03-03T07:38:05.191Z,8.40
2019-03-03T07:39:07.991Z,8.40
2019-03-03T07:40:05.079Z,8.40
2019-03-03T07:41:10.442Z,8.40
2019-03-03T07:42:05.483Z,8.40
2019-03-03T07:43:05.974Z,8.40
2019-03-03T07:44:05.240Z,8.40
2019-03-03T07:45:05.482Z,8.40
2019-03-03T07:46:10.271Z,8.40
2019-03-03T07:47:05.430Z,8.40
2019-03-03T07:48:05.117Z,8.40
2019-03-03T07:49:05.556Z,8.40
2019-03-03T07:50:04.671Z,8.50
2019-03-03T07:51:04.778Z,8.50
2019-03-03T07:52:05.112Z,8.50
2019-03-03T07:53:05.434Z,8.50
2019-03-03T07:54:05.629Z,8.50
2019-03-03T07:55:04.903Z,8.50
2019-03-03T07:56:05.177Z,8.50
2019-03-03T07:57:10.442Z,8.50
2019-03-03T07:58:05.500Z,8.50
2019-03-03T07:59:05.752Z,8.60
2019-03-03T08:00:05.025Z,8.50
2019-03-03T08:01:07.855Z,8.50
2019-03-03T08:02:04.873Z,8.60
2019-03-03T08:03:05.447Z,8.60
2019-03-03T08:04:04.637Z,8.50
2019-03-03T08:05:04.857Z,8.50
2019-03-03T08:06:05.047Z,8.60
2019-03-03T08:07:10.375Z,8.60
2019-03-03T08:08:07.979Z,8.60
2019-03-03T08:09:04.982Z,8.60
2019-03-03T08:10:05.135Z,8.60
2019-03-03T08:11:07.830Z,8.60
2019-03-03T08:12:04.796Z,8.60
2019-03-03T08:13:09.104Z,8.60
2019-03-03T08:14:04.767Z,8.60
2019-03-03T08:15:04.838Z,8.60
2019-03-03T08:16:07.508Z,8.60
2019-03-03T08:17:05.658Z,8.60
2019-03-03T08:18:04.822Z,8.60
2019-03-03T08:19:07.448Z,8.60
2019-03-03T08:20:08.126Z,8.70
2019-03-03T08:21:05.143Z,8.70
2019-03-03T08:22:08.018Z,8.70
2019-03-03T08:23:07.684Z,8.70
2019-03-03T08:24:07.264Z,8.70
2019-03-03T08:25:08.071Z,8.70
2019-03-03T08:26:07.206Z,8.70
2019-03-03T08:27:05.533Z,8.70
2019-03-03T08:28:04.736Z,8.70
2019-03-03T08:29:04.919Z,8.70
2019-03-03T08:30:05.475Z,8.70
2019-03-03T08:31:07.490Z,8.70
2019-03-03T08:32:05.539Z,8.70
2019-03-03T08:33:04.814Z,8.70
2019-03-03T08:34:07.578Z,8.70
2019-03-03T08:35:07.571Z,8.70
2019-03-03T08:36:05.672Z,8.70
2019-03-03T08:37:05.001Z,8.70
2019-03-03T08:38:05.185Z,8.70
2019-03-03T08:39:07.911Z,8.70
2019-03-03T08:40:04.988Z,8.70
2019-03-03T08:41:05.309Z,8.80
2019-03-03T08:42:07.937Z,8.70
2019-03-03T08:43:05.005Z,8.80
2019-03-03T08:44:05.583Z,8.80
2019-03-03T08:45:04.862Z,8.80
2019-03-03T08:46:05.022Z,8.80
2019-03-03T08:47:10.266Z,8.80
2019-03-03T08:48:07.771Z,8.80
2019-03-03T08:49:07.417Z,8.80
2019-03-03T08:50:07.957Z,8.90
2019-03-03T08:51:04.906Z,8.90
2019-03-03T08:52:05.244Z,8.90
2019-03-03T08:53:10.540Z,8.90
2019-03-03T08:54:08.143Z,8.90
2019-03-03T08:55:07.825Z,9.00
2019-03-03T08:56:04.857Z,8.90
2019-03-03T08:57:05.021Z,9.00
2019-03-03T08:58:07.836Z,9.00
2019-03-03T08:59:07.575Z,9.00
2019-03-03T09:00:05.622Z,9.00
2019-03-03T09:01:09.984Z,9.10
2019-03-03T09:02:05.083Z,9.10
2019-03-03T09:03:05.170Z,9.10
2019-03-03T09:04:05.354Z,9.10
2019-03-03T09:05:05.476Z,9.10
2019-03-03T09:06:08.193Z,9.20
2019-03-03T09:07:10.225Z,9.20
2019-03-03T09:08:07.285Z,9.20
2019-03-03T09:09:05.139Z,9.20
2019-03-03T09:10:07.689Z,9.20
2019-03-03T09:11:05.600Z,9.20
2019-03-03T09:12:04.698Z,9.30
2019-03-03T09:13:07.366Z,9.30
2019-03-03T09:14:05.244Z,9.30
2019-03-03T09:15:05.240Z,9.30
2019-03-03T09:16:07.881Z,9.30
2019-03-03T09:17:07.311Z,9.30
2019-03-03T09:18:05.234Z,9.30
2019-03-03T09:19:08.099Z,9.30
2019-03-03T09:20:05.160Z,9.30
2019-03-03T09:21:05.232Z,9.30
2019-03-03T09:22:05.291Z,9.30
2019-03-03T09:23:09.055Z,9.30
2019-03-03T09:24:04.900Z,9.30
2019-03-03T09:25:07.580Z,9.30
2019-03-03T09:26:05.475Z,9.30
2019-03-03T09:27:05.480Z,9.30
2019-03-03T09:28:04.782Z,9.30
2019-03-03T09:29:05.023Z,9.30
2019-03-03T09:30:05.292Z,9.30
2019-03-03T09:31:05.337Z,9.30
2019-03-03T09:32:05.624Z,9.30
2019-03-03T09:33:04.710Z,9.30
2019-03-03T09:34:04.848Z,9.40
2019-03-03T09:35:04.858Z,9.40
2019-03-03T09:36:07.523Z,9.40
2019-03-03T09:37:05.422Z,9.40
2019-03-03T09:38:07.945Z,9.40
2019-03-03T09:39:05.563Z,9.40
2019-03-03T09:40:09.198Z,9.40
2019-03-03T09:41:07.414Z,9.40
2019-03-03T09:42:05.361Z,9.40
2019-03-03T09:43:05.460Z,9.40
2019-03-03T09:44:08.104Z,9.40
2019-03-03T09:45:07.698Z,9.40
2019-03-03T09:46:04.668Z,9.40
2019-03-03T09:47:04.765Z,9.50
2019-03-03T09:48:04.907Z,9.50
2019-03-03T09:49:05.948Z,9.50
2019-03-03T09:50:04.861Z,9.50
2019-03-03T09:51:04.915Z,9.50
2019-03-03T09:52:07.585Z,9.50
2019-03-03T09:53:05.517Z,9.50
2019-03-03T09:54:05.554Z,9.50
2019-03-03T09:55:04.724Z,9.50
2019-03-03T09:56:04.823Z,9.50
2019-03-03T09:57:07.582Z,9.60
2019-03-03T09:58:08.127Z,9.50
2019-03-03T09:59:05.150Z,9.60
2019-03-03T10:00:05.399Z,9.60
2019-03-03T10:01:08.126Z,9.60
2019-03-03T10:02:07.576Z,9.60
2019-03-03T10:03:05.483Z,9.60
2019-03-03T10:04:05.535Z,9.60
2019-03-03T10:05:04.593Z,9.60
2019-03-03T10:06:04.668Z,9.60
2019-03-03T10:07:04.998Z,9.60
2019-03-03T10:08:04.734Z,9.70
2019-03-03T10:09:07.319Z,9.70
2019-03-03T10:10:07.767Z,9.70
2019-03-03T10:11:04.722Z,9.80
2019-03-03T10:12:04.778Z,9.80
2019-03-03T10:13:07.384Z,9.80
2019-03-03T10:14:10.466Z,9.80
2019-03-03T10:15:05.392Z,9.80
2019-03-03T10:16:05.601Z,9.90
2019-03-03T10:17:05.266Z,9.90
2019-03-03T10:18:05.329Z,9.90
2019-03-03T10:19:07.069Z,9.90
2019-03-03T10:20:08.053Z,9.90
2019-03-03T10:21:05.012Z,9.90
2019-03-03T10:22:05.092Z,10.00
2019-03-03T10:23:05.159Z,10.00
2019-03-03T10:24:05.180Z,10.00
2019-03-03T10:25:05.399Z,10.00
2019-03-03T10:26:05.551Z,10.00
2019-03-03T10:27:08.212Z,10.00
2019-03-03T10:28:07.624Z,10.00
2019-03-03T10:29:05.542Z,10.00
2019-03-03T10:30:04.861Z,10.00
2019-03-03T10:31:07.493Z,10.00
2019-03-03T10:32:05.435Z,10.00
2019-03-03T10:33:05.516Z,10.00
2019-03-03T10:34:05.505Z,10.00
2019-03-03T10:35:05.703Z,10.00
2019-03-03T10:36:04.819Z,10.00
2019-03-03T10:37:07.418Z,10.00
2019-03-03T10:38:07.804Z,9.90
2019-03-03T10:39:04.648Z,10.00
2019-03-03T10:40:04.666Z,9.90
2019-03-03T10:41:04.679Z,9.90
2019-03-03T10:42:04.665Z,9.90
2019-03-03T10:43:04.628Z,9.90
2019-03-03T10:44:04.613Z,9.90
2019-03-03T10:45:04.605Z,9.80
2019-03-03T10:46:04.607Z,9.90
2019-03-03T10:47:04.626Z,9.80
2019-03-03T10:48:07.297Z,9.80
2019-03-03T10:49:05.126Z,9.80
2019-03-03T10:50:07.814Z,9.90
2019-03-03T10:51:04.689Z,9.90
2019-03-03T10:52:04.776Z,9.90
2019-03-03T10:53:04.837Z,9.90
2019-03-03T10:54:05.053Z,9.90
2019-03-03T10:55:05.103Z,9.90
2019-03-03T10:56:07.826Z,9.90
2019-03-03T10:57:07.367Z,9.90
2019-03-03T10:58:07.870Z,10.00
2019-03-03T10:59:04.850Z,9.90
2019-03-03T11:00:07.599Z,10.00
2019-03-03T11:01:05.511Z,10.00
2019-03-03T11:02:04.623Z,10.00
2019-03-03T11:03:04.682Z,10.00
2019-03-03T11:04:04.826Z,10.00
2019-03-03T11:05:05.052Z,10.00
2019-03-03T11:06:07.747Z,10.00
2019-03-03T11:07:04.591Z,10.00
2019-03-03T11:08:04.735Z,10.00
2019-03-03T11:09:04.806Z,10.00
2019-03-03T11:10:07.422Z,10.00
2019-03-03T11:11:05.337Z,10.00
2019-03-03T11:12:05.352Z,10.00
2019-03-03T11:13:05.413Z,10.00
2019-03-03T11:14:05.554Z,10.00
2019-03-03T11:15:07.390Z,10.00
2019-03-03T11:16:05.268Z,10.00
2019-03-03T11:17:07.951Z,10.00
2019-03-03T11:18:04.995Z,10.00
2019-03-03T11:19:07.747Z,10.00
2019-03-03T11:20:07.244Z,10.00
2019-03-03T11:21:07.652Z,10.10
2019-03-03T11:22:05.544Z,10.10
2019-03-03T11:23:08.148Z,10.10
2019-03-03T11:24:07.511Z,10.10
2019-03-03T11:25:05.407Z,10.10
2019-03-03T11:26:07.941Z,10.20
2019-03-03T11:27:09.987Z,10.20
2019-03-03T11:28:04.925Z,10.20
2019-03-03T11:29:04.908Z,10.20
2019-03-03T11:30:05.259Z,10.20
2019-03-03T11:31:05.248Z,10.30
2019-03-03T11:32:07.767Z,10.30
2019-03-03T11:33:07.585Z,10.40
2019-03-03T11:34:05.576Z,10.40
2019-03-03T11:35:07.265Z,10.40
2019-03-03T11:36:05.236Z,10.50
2019-03-03T11:37:05.464Z,10.40
2019-03-03T11:38:08.066Z,10.50
2019-03-03T11:39:04.985Z,10.50
2019-03-03T11:40:05.086Z,10.50
2019-03-03T11:41:07.782Z,10.60
2019-03-03T11:42:04.645Z,10.60
2019-03-03T11:43:04.705Z,10.60
2019-03-03T11:44:04.786Z,10.60
2019-03-03T11:45:04.802Z,10.60
2019-03-03T11:46:09.907Z,10.70
2019-03-03T11:47:04.902Z,10.70
2019-03-03T11:48:04.966Z,10.70
2019-03-03T11:49:05.167Z,10.80
2019-03-03T11:50:07.856Z,10.80
2019-03-03T11:51:07.492Z,10.70
2019-03-03T11:52:05.408Z,10.70
2019-03-03T11:53:05.470Z,10.70
2019-03-03T11:54:08.086Z,10.80
2019-03-03T11:55:07.533Z,10.80
2019-03-03T11:56:05.467Z,10.70
2019-03-03T11:57:08.177Z,10.70
2019-03-03T11:58:05.150Z,10.70
2019-03-03T11:59:05.225Z,10.70
2019-03-03T12:00:05.260Z,10.70
2019-03-03T12:01:05.378Z,10.70
2019-03-03T12:02:04.643Z,10.70
2019-03-03T12:03:04.739Z,10.70
2019-03-03T12:04:04.789Z,10.70
2019-03-03T12:05:04.818Z,10.70
2019-03-03T12:06:07.454Z,10.70
2019-03-03T12:07:05.391Z,10.70
2019-03-03T12:08:05.439Z,10.70
2019-03-03T12:09:05.456Z,10.70
2019-03-03T12:10:08.074Z,10.70
2019-03-03T12:11:07.532Z,10.70
2019-03-03T12:12:05.475Z,10.70
2019-03-03T12:13:08.113Z,10.80
2019-03-03T12:14:05.187Z,10.70
2019-03-03T12:15:05.382Z,10.80
2019-03-03T12:16:08.103Z,10.80
2019-03-03T12:17:05.133Z,10.80
2019-03-03T12:18:07.845Z,10.80
2019-03-03T12:19:04.749Z,10.80
2019-03-03T12:20:07.432Z,10.90
2019-03-03T12:21:05.420Z,10.90
2019-03-03T12:22:05.388Z,10.80
2019-03-03T12:23:05.485Z,10.90
2019-03-03T12:24:05.494Z,10.90
2019-03-03T12:25:08.172Z,10.90
2019-03-03T12:26:05.115Z,10.80
2019-03-03T12:27:08.037Z,10.80
2019-03-03T12:28:04.856Z,10.80
2019-03-03T12:29:04.826Z,10.90
2019-03-03T12:30:05.456Z,10.90
2019-03-03T12:31:05.647Z,10.90
2019-03-03T12:32:07.227Z,10.80
2019-03-03T12:33:05.125Z,10.90
2019-03-03T12:34:04.872Z,10.80
2019-03-03T12:35:04.912Z,10.80
2019-03-03T12:36:05.143Z,10.80
2019-03-03T12:37:05.246Z,10.80
2019-03-03T12:38:10.399Z,10.70
2019-03-03T12:39:07.319Z,10.80
2019-03-03T12:40:05.183Z,10.70
2019-03-03T12:41:07.701Z,10.80
2019-03-03T12:42:08.164Z,10.70
2019-03-03T12:43:05.035Z,10.70
2019-03-03T12:44:05.069Z,10.70
2019-03-03T12:45:07.659Z,10.70
2019-03-03T12:46:05.531Z,10.70
2019-03-03T12:47:04.614Z,10.70
2019-03-03T12:48:09.726Z,10.70
2019-03-03T12:49:04.594Z,10.70
2019-03-03T12:50:07.132Z,10.60
2019-03-03T12:51:07.619Z,10.70
2019-03-03T12:52:05.465Z,10.60
2019-03-03T12:53:10.729Z,10.60
2019-03-03T12:54:07.269Z,10.60
2019-03-03T12:55:05.131Z,10.60
2019-03-03T12:56:05.203Z,10.60
2019-03-03T12:57:05.267Z,10.60
2019-03-03T12:58:07.909Z,10.60
2019-03-03T12:59:07.282Z,10.70
2019-03-03T13:00:05.422Z,10.60
2019-03-03T13:01:05.498Z,10.70
2019-03-03T13:02:05.569Z,10.70
2019-03-03T13:03:08.197Z,10.70
2019-03-03T13:04:05.161Z,10.60
2019-03-03T13:05:05.204Z,10.70
2019-03-03T13:06:05.223Z,10.60
2019-03-03T13:07:07.912Z,10.60
2019-03-03T13:08:04.880Z,10.60
2019-03-03T13:09:04.923Z,10.60
2019-03-03T13:10:04.964Z,10.70
2019-03-03T13:11:04.999Z,10.70
2019-03-03T13:12:07.673Z,10.70
2019-03-03T13:13:08.103Z,10.70